createdAt,value
2019-02-07T00:01:15.000Z,37.209
2019-02-07T00:11:15.000Z,37.081
2019-02-07T00:21:15.000Z,37.048
2019-02-07T00:31:15.000Z,37.004
2019-02-07T00:41:15.000Z,36.983
2019-02-07T00:51:16.000Z,36.939
2019-02-07T01:01:15.000Z,36.84
2019-02-07T01:11:15.000Z,36.873
2019-02-07T01:21:15.000Z,36.796
2019-02-07T01:31:15.000Z,36.732
2019-02-07T01:41:15.000Z,36.73
2019-02-07T01:51:15.000Z,36.697
2019-02-07T02:01:15.000Z,36.708
2019-02-07T02:11:15.000Z,36.654
2019-02-07T02:21:15.000Z,36.609
2019-02-07T02:31:15.000Z,36.641
2019-02-07T02:41:15.000Z,36.522
2019-02-07T02:51:15.000Z,36.521
2019-02-07T03:01:15.000Z,36.499
2019-02-07T03:11:15.000Z,36.508
2019-02-07T03:21:15.000Z,36.422
2019-02-07T03:31:15.000Z,36.507
2019-02-07T03:41:15.000Z,36.506
2019-02-07T03:51:15.000Z,36.538
2019-02-07T04:01:15.000Z,36.504
2019-02-07T04:11:15.000Z,36.525
2019-02-07T04:21:15.000Z,36.483
2019-02-07T04:31:15.000Z,36.555
2019-02-07T04:41:15.000Z,36.535
2019-02-07T04:51:16.000Z,36.565
2019-02-07T05:01:16.000Z,36.542
2019-02-07T05:11:16.000Z,36.414
2019-02-07T05:21:16.000Z,36.263
2019-02-07T05:31:16.000Z,36.306
2019-02-07T05:41:16.000Z,36.178
2019-02-07T05:51:16.000Z,36.082
2019-02-07T06:01:16.000Z,35.954
2019-02-07T06:11:16.000Z,35.846
2019-02-07T06:21:16.000Z,35.354
2019-02-07T06:31:16.000Z,35.192
2019-02-07T06:41:16.000Z,35.183
2019-02-07T06:51:16.000Z,35.142
2019-02-07T07:01:16.000Z,35.048
2019-02-07T07:11:16.000Z,35.061
2019-02-07T07:21:16.000Z,35.116
2019-02-07T07:31:16.000Z,36.668
2019-02-07T07:41:16.000Z,37.004
2019-02-07T07:51:16.000Z,36.941
2019-02-07T08:01:16.000Z,36.985
2019-02-07T08:11:16.000Z,36.868
2019-02-07T08:21:16.000Z,36.891
2019-02-07T08:31:16.000Z,37.06
2019-02-07T08:41:16.000Z,36.896
2019-02-07T08:51:16.000Z,36.703
2019-02-07T09:01:16.000Z,36.684
2019-02-07T09:11:16.000Z,36.674
2019-02-07T09:21:16.000Z,36.635
2019-02-07T09:31:16.000Z,36.657
2019-02-07T09:41:16.000Z,36.519
2019-02-07T09:51:16.000Z,36.25
2019-02-07T10:01:16.000Z,36.259
2019-02-07T10:11:16.000Z,36.134
2019-02-07T10:21:16.000Z,35.607
2019-02-07T10:31:16.000Z,35.289
2019-02-07T10:41:16.000Z,35.258
2019-02-07T10:51:16.000Z,35.197
2019-02-07T11:01:16.000Z,34.767
2019-02-07T11:11:16.000Z,33.858
2019-02-07T11:21:16.000Z,34.272
2019-02-07T11:31:16.000Z,33.692
2019-02-07T11:41:16.000Z,34.201
2019-02-07T11:51:16.000Z,33.8
2019-02-07T12:01:16.000Z,33.858
2019-02-07T12:11:16.000Z,33.656
2019-02-07T12:21:16.000Z,35.419
2019-02-07T12:31:16.000Z,35.143
2019-02-07T12:41:16.000Z,34.989
2019-02-07T12:51:17.000Z,35.076
2019-02-07T13:01:17.000Z,35.02
2019-02-07T13:11:17.000Z,34.955
2019-02-07T13:21:19.000Z,34.904
2019-02-07T13:31:17.000Z,34.73
2019-02-07T13:41:17.000Z,35.098
2019-02-07T13:51:17.000Z,35.966
2019-02-07T14:11:17.000Z,37.375
2019-02-07T14:21:17.000Z,38.022
2019-02-07T14:31:17.000Z,38.606
2019-02-07T14:41:18.000Z,38.638
2019-02-07T14:51:17.000Z,39.149
2019-02-07T15:01:17.000Z,39.313
2019-02-07T15:11:17.000Z,39.381
2019-02-07T15:21:17.000Z,39.809
2019-02-07T15:31:17.000Z,39.998
2019-02-07T15:41:17.000Z,40.263
2019-02-07T15:51:17.000Z,40.32
2019-02-07T16:11:17.000Z,39.859
2019-02-07T16:21:17.000Z,41.809
2019-02-07T16:31:17.000Z,42.134
2019-02-07T16:41:17.000Z,41.769
2019-02-07T16:51:17.000Z,42.024
2019-02-07T17:01:17.000Z,42.32
2019-02-07T17:11:17.000Z,42.473
2019-02-07T17:21:17.000Z,42.853
2019-02-07T17:31:17.000Z,43.005
2019-02-07T17:41:17.000Z,42.955
2019-02-07T17:51:17.000Z,43.351
2019-02-07T18:01:17.000Z,43.208
2019-02-07T18:11:19.000Z,43.018
2019-02-07T18:21:17.000Z,43.358
2019-02-07T18:31:17.000Z,43.196
2019-02-07T18:41:17.000Z,43.118
2019-02-07T18:51:17.000Z,42.708
2019-02-07T19:01:17.000Z,42.888
2019-02-07T19:11:18.000Z,42.888
2019-02-07T19:21:18.000Z,42.597
2019-02-07T19:31:17.000Z,42.635
2019-02-07T19:41:19.000Z,42.699
2019-02-07T19:51:17.000Z,42.361
2019-02-07T20:01:17.000Z,42.413
2019-02-07T20:11:17.000Z,42.271
2019-02-07T20:21:17.000Z,42.226
2019-02-07T20:31:18.000Z,41.911
2019-02-07T20:41:18.000Z,41.929
2019-02-07T20:51:17.000Z,41.873
2019-02-07T21:01:18.000Z,41.708
2019-02-07T21:11:17.000Z,41.717
2019-02-07T21:21:18.000Z,41.93
2019-02-07T21:31:22.000Z,41.679
2019-02-07T21:41:18.000Z,41.45
2019-02-07T21:51:18.000Z,41.467
2019-02-07T22:01:18.000Z,41.434
2019-02-07T22:11:22.000Z,41.259
2019-02-07T22:21:18.000Z,41.008
2019-02-07T22:31:18.000Z,41.148
2019-02-07T22:41:18.000Z,41.384
2019-02-07T22:51:18.000Z,41.468
2019-02-07T23:01:18.000Z,41.672
2019-02-07T23:11:18.000Z,41.691
2019-02-07T23:21:18.000Z,41.882
2019-02-07T23:31:18.000Z,41.881
2019-02-07T23:41:18.000Z,42.083
2019-02-07T23:51:18.000Z,42.092
